臺北飛航情報區 - 掃描席(區管/近場)

METAR RCTP 212300Z VRB03KT 9999 FEW012 SCT060 29/25 Q1013 NOSIG RMK A2993(K)=

站台狀態:Online
最後更新:2018-09-22 07:00:01